Time;durP1;ratioP1;P1;durP2;ratioP2;P2;SDS_P1;SDS_P2;PMS_P1;PMS_P2;Temp;Humidity;BMP_temperature;BMP_pressure;BME280_temperature;BME280_humidity;BME280_pressure;Samples;Min_cycle;Max_cycle;Signal;HPM_P1;HPM_P2
2022/05/22 00:00:24;;;;;;;;;;;20.70;82.90;;;;;;5114320;28;20296;-90
2022/05/22 00:02:50;;;;;;;;;;;20.70;81.70;;;;;;5114242;28;19970;-90
2022/05/22 00:05:17;;;;;;;;;;;20.70;81.90;;;;;;5102181;28;20396;-90
2022/05/22 00:07:43;;;;;;;;;;;20.70;82.40;;;;;;5093809;28;19956;-90
2022/05/22 00:10:09;;;;;;;;;;;20.70;83.60;;;;;;5093852;28;19943;-90
2022/05/22 00:12:35;;;;;;;;;;;20.70;83.20;;;;;;5094017;28;19976;-90
2022/05/22 00:15:01;;;;;;;;;;;20.70;82.20;;;;;;5102972;28;20369;-90
2022/05/22 00:17:26;;;;;;;;;;;20.70;81.80;;;;;;5114004;28;20037;-90
2022/05/22 00:19:52;;;;;;;;;;;20.60;81.30;;;;;;5113941;28;20027;-90
2022/05/22 00:22:18;;;;;;;;;;;20.60;81.20;;;;;;5113794;28;19962;-90
2022/05/22 00:24:43;;;;;;;;;;;20.60;81.30;;;;;;5113517;28;20396;-90
2022/05/22 00:27:09;;;;;;;;;;;20.70;83.10;;;;;;5113860;28;19985;-90
2022/05/22 00:29:34;;;;;;;;;;;20.60;83.60;;;;;;5113827;28;20371;-90
2022/05/22 00:32:00;;;;;;;;;;;20.60;83.80;;;;;;5113874;28;20507;-91
2022/05/22 00:34:25;;;;;;;;;;;20.50;83.70;;;;;;5113381;28;20421;-91
2022/05/22 00:36:51;;;;;;;;;;;20.40;83.00;;;;;;5113300;27;19950;-90
2022/05/22 00:39:16;;;;;;;;;;;20.30;82.80;;;;;;5113815;28;20299;-90
2022/05/22 00:41:46;;;;;;;;;;;20.30;82.40;;;;;;5113512;28;20121;-90
2022/05/22 00:44:11;;;;;;;;;;;20.30;82.50;;;;;;5111456;27;19995;-90
2022/05/22 00:46:37;;;;;;;;;;;20.30;82.50;;;;;;5093285;28;19991;-90
2022/05/22 00:49:03;;;;;;;;;;;20.30;82.50;;;;;;5093300;28;19990;-90
2022/05/22 00:51:32;;;;;;;;;;;20.30;82.50;;;;;;5093269;28;20313;-90
2022/05/22 00:54:00;;;;;;;;;;;20.10;83.80;;;;;;5093252;28;20399;-90
2022/05/22 00:56:33;;;;;;;;;;;19.90;84.80;;;;;;5073008;28;19948;-90
2022/05/22 00:58:59;;;;;;;;;;;19.80;85.20;;;;;;5073018;28;19951;-90
2022/05/22 01:01:25;;;;;;;;;;;19.80;85.80;;;;;;5072966;28;19963;-90
2022/05/22 01:03:50;;;;;;;;;;;19.80;85.70;;;;;;5092329;28;19947;-90
2022/05/22 01:06:18;;;;;;;;;;;19.80;85.60;;;;;;5093128;28;20402;-90
2022/05/22 01:08:47;;;;;;;;;;;19.80;85.50;;;;;;5108443;28;20370;-90
2022/05/22 01:11:14;;;;;;;;;;;19.80;85.40;;;;;;5072841;28;19953;-90
2022/05/22 01:13:41;;;;;;;;;;;19.80;85.30;;;;;;5072814;28;19951;-90
2022/05/22 01:16:07;;;;;;;;;;;19.80;85.30;;;;;;5072769;28;20088;-90
2022/05/22 01:18:49;;;;;;;;;;;19.70;85.70;;;;;;5071637;28;19987;-90
2022/05/22 01:21:17;;;;;;;;;;;19.80;85.90;;;;;;5112685;28;20326;-90
2022/05/22 01:23:43;;;;;;;;;;;19.80;85.70;;;;;;5113280;28;19961;-90
2022/05/22 01:26:08;;;;;;;;;;;19.80;85.30;;;;;;5113310;28;19941;-90
2022/05/22 01:28:34;;;;;;;;;;;19.80;85.10;;;;;;5113294;28;19972;-90
2022/05/22 01:31:00;;;;;;;;;;;19.80;84.80;;;;;;5094975;28;19993;-90
2022/05/22 01:33:26;;;;;;;;;;;19.90;84.80;;;;;;5093329;28;19949;-90
2022/05/22 01:35:52;;;;;;;;;;;19.80;84.70;;;;;;5091622;28;20395;-90
2022/05/22 01:38:17;;;;;;;;;;;19.80;84.80;;;;;;5092922;28;20139;-90
2022/05/22 01:40:43;;;;;;;;;;;19.80;85.00;;;;;;5092778;28;19976;-90
2022/05/22 01:43:09;;;;;;;;;;;19.60;85.30;;;;;;5092733;28;19951;-90
2022/05/22 01:45:35;;;;;;;;;;;19.50;85.90;;;;;;5108565;28;19942;-90
2022/05/22 01:48:01;;;;;;;;;;;19.50;86.20;;;;;;5113102;28;20012;-90
2022/05/22 01:50:27;;;;;;;;;;;19.30;86.50;;;;;;5116080;28;20320;-90
2022/05/22 01:52:53;;;;;;;;;;;19.30;86.80;;;;;;5116671;28;19943;-90
2022/05/22 01:55:19;;;;;;;;;;;19.30;87.00;;;;;;5116754;28;19948;-90
2022/05/22 01:57:44;;;;;;;;;;;19.20;86.90;;;;;;5116642;28;20234;-90
2022/05/22 02:00:12;;;;;;;;;;;19.20;87.30;;;;;;5106131;28;20027;-90
2022/05/22 02:02:38;;;;;;;;;;;19.30;87.30;;;;;;5096052;28;20407;-90
2022/05/22 02:05:04;;;;;;;;;;;19.30;87.00;;;;;;5096094;28;19960;-90
2022/05/22 02:10:14;;;;;;;;;;;19.30;86.90;;;;;;5106658;28;19950;-90
2022/05/22 02:12:39;;;;;;;;;;;19.30;87.10;;;;;;5116431;28;19950;-90
2022/05/22 02:15:06;;;;;;;;;;;19.20;87.60;;;;;;5116451;27;19973;-90
2022/05/22 02:17:32;;;;;;;;;;;19.10;87.60;;;;;;5116263;28;20421;-90
2022/05/22 02:19:57;;;;;;;;;;;19.10;87.60;;;;;;5106633;28;20423;-90
2022/05/22 02:22:23;;;;;;;;;;;19.00;87.60;;;;;;5095659;28;19971;-90
2022/05/22 02:24:53;;;;;;;;;;;19.00;87.60;;;;;;5095767;28;20412;-90
2022/05/22 02:27:19;;;;;;;;;;;18.90;87.90;;;;;;5095689;28;20534;-90
2022/05/22 02:29:44;;;;;;;;;;;18.80;88.30;;;;;;5096058;28;19943;-90
2022/05/22 02:32:10;;;;;;;;;;;18.80;88.40;;;;;;5095607;28;19950;-90
2022/05/22 02:34:35;;;;;;;;;;;18.90;88.00;;;;;;5095473;28;19974;-90
2022/05/22 02:37:01;;;;;;;;;;;18.90;87.90;;;;;;5095526;28;19955;-90
2022/05/22 02:39:26;;;;;;;;;;;19.00;87.60;;;;;;5095674;28;20402;-90
2022/05/22 02:41:52;;;;;;;;;;;18.90;87.50;;;;;;5095157;28;19984;-90
2022/05/22 02:44:18;;;;;;;;;;;18.90;87.50;;;;;;5095414;28;19979;-90
2022/05/22 02:46:43;;;;;;;;;;;18.90;87.60;;;;;;5095345;28;19935;-90
2022/05/22 02:49:09;;;;;;;;;;;18.80;87.60;;;;;;5095423;28;19937;-90
2022/05/22 02:51:35;;;;;;;;;;;18.80;87.80;;;;;;5115838;28;19944;-90
2022/05/22 02:54:01;;;;;;;;;;;18.80;87.80;;;;;;5115613;28;19965;-90
2022/05/22 02:56:27;;;;;;;;;;;18.80;88.00;;;;;;5115511;28;20384;-90
2022/05/22 02:58:53;;;;;;;;;;;18.70;88.00;;;;;;5115516;28;20107;-90
2022/05/22 03:01:18;;;;;;;;;;;18.70;88.10;;;;;;5114999;28;20458;-90
2022/05/22 03:03:44;;;;;;;;;;;18.60;88.20;;;;;;5115432;28;19937;-90
2022/05/22 03:08:54;;;;;;;;;;;18.50;88.50;;;;;;5115231;28;19975;-90
2022/05/22 03:11:20;;;;;;;;;;;18.50;88.40;;;;;;5111969;28;19947;-90
2022/05/22 03:13:45;;;;;;;;;;;18.50;88.40;;;;;;5115246;28;19945;-90
2022/05/22 03:16:11;;;;;;;;;;;18.40;88.40;;;;;;5115172;28;19940;-90
2022/05/22 03:18:37;;;;;;;;;;;18.40;88.50;;;;;;5115090;28;20058;-90
2022/05/22 03:21:03;;;;;;;;;;;18.50;88.20;;;;;;5114256;28;20303;-90
2022/05/22 03:23:28;;;;;;;;;;;18.60;88.00;;;;;;5114811;28;20039;-90
2022/05/22 03:25:54;;;;;;;;;;;18.60;87.60;;;;;;5114932;28;20309;-90
2022/05/22 03:28:23;;;;;;;;;;;18.60;87.30;;;;;;5114932;28;19945;-90
2022/05/22 03:30:49;;;;;;;;;;;18.60;87.20;;;;;;5101301;28;19950;-90
2022/05/22 03:33:15;;;;;;;;;;;18.50;87.10;;;;;;5094332;28;19944;-90
2022/05/22 03:35:40;;;;;;;;;;;18.40;87.40;;;;;;5094384;28;19940;-90
2022/05/22 03:38:06;;;;;;;;;;;18.40;87.50;;;;;;5094365;28;20003;-90
2022/05/22 03:40:31;;;;;;;;;;;18.50;87.20;;;;;;5104948;28;20031;-90
2022/05/22 03:42:57;;;;;;;;;;;18.50;87.00;;;;;;5114531;28;19992;-90
2022/05/22 03:45:22;;;;;;;;;;;18.60;86.60;;;;;;5114550;28;19938;-90
2022/05/22 03:47:48;;;;;;;;;;;18.60;86.70;;;;;;5102233;28;19994;-90
2022/05/22 03:50:14;;;;;;;;;;;18.50;86.80;;;;;;5094062;28;19942;-90
2022/05/22 03:52:40;;;;;;;;;;;18.50;86.90;;;;;;5094044;28;19969;-90
2022/05/22 03:55:07;;;;;;;;;;;18.40;87.10;;;;;;5093931;28;19952;-90
2022/05/22 03:57:33;;;;;;;;;;;18.30;87.40;;;;;;5094157;28;19970;-90
2022/05/22 03:59:58;;;;;;;;;;;18.40;87.50;;;;;;5093938;28;19933;-90
2022/05/22 04:02:24;;;;;;;;;;;18.40;87.30;;;;;;5093799;28;20330;-90
2022/05/22 04:04:50;;;;;;;;;;;18.40;87.30;;;;;;5093834;28;20006;-90
2022/05/22 04:07:16;;;;;;;;;;;18.40;87.40;;;;;;5094185;28;19939;-90
2022/05/22 04:09:42;;;;;;;;;;;18.40;87.50;;;;;;5093819;28;19933;-90
2022/05/22 04:12:09;;;;;;;;;;;18.40;87.70;;;;;;5093351;28;19939;-90
2022/05/22 04:14:34;;;;;;;;;;;18.30;87.70;;;;;;5093724;28;19995;-90
2022/05/22 04:17:00;;;;;;;;;;;18.30;87.80;;;;;;5098073;28;19984;-90
2022/05/22 04:19:25;;;;;;;;;;;18.30;88.00;;;;;;5113997;28;19950;-90
2022/05/22 04:21:51;;;;;;;;;;;18.30;88.10;;;;;;5113896;28;19959;-90
2022/05/22 04:27:05;;;;;;;;;;;18.50;87.70;;;;;;5108995;28;19947;-90
2022/05/22 04:29:31;;;;;;;;;;;18.70;87.50;;;;;;5093502;28;20008;-90
2022/05/22 04:31:56;;;;;;;;;;;18.80;87.30;;;;;;5093471;28;19949;-90
2022/05/22 04:34:22;;;;;;;;;;;18.80;86.70;;;;;;5093381;28;19943;-90
2022/05/22 04:36:47;;;;;;;;;;;18.90;86.60;;;;;;5096000;28;20721;-90
2022/05/22 04:39:13;;;;;;;;;;;18.90;86.70;;;;;;5113564;28;20380;-90
2022/05/22 04:41:38;;;;;;;;;;;19.00;86.60;;;;;;5095496;22;19988;-90
2022/05/22 04:44:05;;;;;;;;;;;19.10;86.80;;;;;;5073112;28;20028;-90
2022/05/22 04:46:30;;;;;;;;;;;19.20;86.70;;;;;;5072919;28;19984;-90
2022/05/22 04:48:56;;;;;;;;;;;19.30;86.60;;;;;;5053274;28;20366;-90
2022/05/22 04:51:21;;;;;;;;;;;19.30;86.20;;;;;;5053032;28;20361;-90
2022/05/22 04:53:47;;;;;;;;;;;19.40;85.90;;;;;;5053314;28;20338;-90
2022/05/22 04:56:12;;;;;;;;;;;19.40;86.10;;;;;;5052992;28;20521;-90
2022/05/22 04:58:38;;;;;;;;;;;19.50;86.10;;;;;;5069846;28;19952;-90
2022/05/22 05:01:04;;;;;;;;;;;19.60;86.00;;;;;;5072880;28;19944;-90
2022/05/22 05:03:30;;;;;;;;;;;19.70;85.60;;;;;;5072901;28;19939;-90
2022/05/22 05:05:57;;;;;;;;;;;19.80;85.40;;;;;;5072938;28;19946;-90
2022/05/22 05:08:23;;;;;;;;;;;19.90;85.10;;;;;;5057873;28;19948;-90
2022/05/22 05:10:50;;;;;;;;;;;20.00;84.80;;;;;;5052785;28;19944;-90
2022/05/22 05:13:15;;;;;;;;;;;20.10;84.50;;;;;;5052777;28;20436;-90
2022/05/22 05:15:41;;;;;;;;;;;20.30;84.10;;;;;;5052700;28;19946;-90
2022/05/22 05:18:07;;;;;;;;;;;20.50;83.60;;;;;;5064911;28;20430;-90
2022/05/22 05:20:32;;;;;;;;;;;20.60;83.40;;;;;;5072756;28;19958;-90
2022/05/22 05:23:01;;;;;;;;;;;20.70;83.30;;;;;;5072638;28;20032;-90
2022/05/22 05:25:26;;;;;;;;;;;20.80;83.30;;;;;;5076489;28;20283;-90
2022/05/22 05:27:52;;;;;;;;;;;20.90;83.30;;;;;;5066026;28;19952;-90
2022/05/22 05:30:18;;;;;;;;;;;21.00;82.80;;;;;;5056516;28;19945;-90
2022/05/22 05:32:43;;;;;;;;;;;21.10;82.30;;;;;;5056450;28;19947;-90
2022/05/22 05:35:11;;;;;;;;;;;21.10;81.80;;;;;;5056285;28;20432;-90
2022/05/22 05:37:36;;;;;;;;;;;21.20;81.30;;;;;;5064103;28;19952;-90
2022/05/22 05:40:02;;;;;;;;;;;21.30;81.20;;;;;;5076272;28;19935;-90
2022/05/22 05:42:32;;;;;;;;;;;21.40;80.80;;;;;;5075942;28;19950;-90
2022/05/22 05:44:57;;;;;;;;;;;21.40;80.50;;;;;;5076471;28;19943;-90
2022/05/22 05:47:23;;;;;;;;;;;21.60;80.20;;;;;;5068697;28;20379;-90
2022/05/22 05:49:48;;;;;;;;;;;21.70;79.80;;;;;;5056150;28;19943;-90
2022/05/22 05:52:15;;;;;;;;;;;21.80;79.30;;;;;;5056075;28;20070;-90
2022/05/22 05:54:40;;;;;;;;;;;21.80;79.30;;;;;;5056210;28;19954;-90
2022/05/22 05:57:06;;;;;;;;;;;21.90;79.20;;;;;;5056034;28;19941;-90
2022/05/22 05:59:33;;;;;;;;;;;22.00;78.60;;;;;;5056002;28;20374;-90
2022/05/22 06:01:59;;;;;;;;;;;22.10;78.20;;;;;;5056166;28;19961;-90
2022/05/22 06:04:25;;;;;;;;;;;22.20;77.80;;;;;;5061208;28;20297;-90
2022/05/22 06:06:50;;;;;;;;;;;22.30;77.60;;;;;;5075866;28;20329;-90
2022/05/22 06:09:16;;;;;;;;;;;22.40;77.10;;;;;;5076037;28;19957;-90
2022/05/22 06:11:42;;;;;;;;;;;22.50;77.00;;;;;;5075721;28;19943;-90
2022/05/22 06:14:08;;;;;;;;;;;22.60;75.90;;;;;;5075135;28;19955;-90
2022/05/22 06:16:33;;;;;;;;;;;22.60;74.50;;;;;;5075698;28;19943;-90
2022/05/22 06:18:59;;;;;;;;;;;22.70;73.50;;;;;;5074282;28;19945;-90
2022/05/22 06:21:24;;;;;;;;;;;22.80;73.00;;;;;;5075519;28;20017;-90
2022/05/22 06:23:50;;;;;;;;;;;22.80;72.70;;;;;;5075153;28;20005;-90
2022/05/22 06:26:20;;;;;;;;;;;22.80;72.40;;;;;;5055461;28;20000;-90
2022/05/22 06:28:46;;;;;;;;;;;22.80;72.70;;;;;;5055355;28;20407;-90
2022/05/22 06:31:12;;;;;;;;;;;22.90;72.80;;;;;;5055335;28;19946;-90
2022/05/22 06:33:38;;;;;;;;;;;22.90;72.10;;;;;;5055454;28;19942;-90
2022/05/22 06:36:08;;;;;;;;;;;23.00;71.50;;;;;;5066701;28;20437;-90
2022/05/22 06:41:18;;;;;;;;;;;23.10;71.30;;;;;;5075190;28;20504;-90
2022/05/22 06:43:46;;;;;;;;;;;23.10;72.30;;;;;;5074210;28;19941;-90
2022/05/22 06:46:11;;;;;;;;;;;23.20;71.60;;;;;;5074663;28;19945;-90
2022/05/22 06:48:37;;;;;;;;;;;23.20;71.20;;;;;;5075199;28;19949;-90
2022/05/22 06:51:02;;;;;;;;;;;23.30;71.00;;;;;;5075310;28;19948;-90
2022/05/22 06:53:28;;;;;;;;;;;23.30;70.90;;;;;;5073827;28;20493;-90
2022/05/22 06:55:54;;;;;;;;;;;23.40;69.70;;;;;;5073842;28;19987;-90
2022/05/22 06:58:20;;;;;;;;;;;23.50;69.50;;;;;;5074903;28;19944;-90
2022/05/22 07:00:50;;;;;;;;;;;23.50;69.70;;;;;;5074842;28;19945;-90
2022/05/22 07:03:15;;;;;;;;;;;23.60;68.80;;;;;;5074837;28;20362;-90
2022/05/22 07:05:41;;;;;;;;;;;23.70;68.60;;;;;;5058701;28;19992;-90
2022/05/22 07:08:06;;;;;;;;;;;23.70;69.50;;;;;;5054717;28;19942;-90
2022/05/22 07:13:19;;;;;;;;;;;23.90;68.50;;;;;;5054968;28;19966;-90
2022/05/22 07:15:44;;;;;;;;;;;24.00;67.80;;;;;;5054527;28;20007;-90
2022/05/22 07:18:11;;;;;;;;;;;24.00;66.30;;;;;;5054495;28;20412;-90
2022/05/22 07:20:36;;;;;;;;;;;24.10;66.30;;;;;;5054497;28;19961;-90
2022/05/22 07:23:02;;;;;;;;;;;24.20;67.40;;;;;;5059371;28;20068;-90
2022/05/22 07:25:41;;;;;;;;;;;24.30;66.50;;;;;;5074725;28;19945;-90
2022/05/22 07:28:12;;;;;;;;;;;24.40;62.70;;;;;;5074045;28;20106;-90
2022/05/22 07:30:38;;;;;;;;;;;24.50;63.30;;;;;;5074266;28;20454;-90
2022/05/22 07:33:03;;;;;;;;;;;24.60;63.50;;;;;;5070121;28;19938;-90
2022/05/22 07:35:29;;;;;;;;;;;24.70;63.70;;;;;;5054144;28;19946;-90
2022/05/22 07:37:54;;;;;;;;;;;24.80;63.50;;;;;;5054114;28;19991;-90
2022/05/22 07:40:20;;;;;;;;;;;24.90;63.30;;;;;;5053922;28;19991;-90
2022/05/22 07:42:45;;;;;;;;;;;25.10;62.80;;;;;;5070264;28;20329;-91
2022/05/22 07:45:14;;;;;;;;;;;25.20;63.20;;;;;;5073912;28;20403;-90
2022/05/22 07:47:39;;;;;;;;;;;25.20;62.40;;;;;;5073257;28;20034;-90
2022/05/22 07:50:17;;;;;;;;;;;25.40;60.80;;;;;;5073874;28;20034;-90
2022/05/22 07:52:45;;;;;;;;;;;25.50;61.80;;;;;;5057623;28;19941;-90
2022/05/22 07:55:15;;;;;;;;;;;25.70;61.80;;;;;;5053830;28;19947;-90
2022/05/22 07:57:41;;;;;;;;;;;25.80;61.20;;;;;;5053735;28;19946;-90
2022/05/22 08:00:08;;;;;;;;;;;26.00;60.40;;;;;;5053743;28;19937;-90
2022/05/22 08:02:34;;;;;;;;;;;26.20;60.90;;;;;;5068178;28;19984;-90
2022/05/22 08:04:59;;;;;;;;;;;26.30;60.40;;;;;;5073696;28;20367;-91
2022/05/22 08:07:25;;;;;;;;;;;26.40;59.00;;;;;;5073546;28;20386;-90
2022/05/22 08:09:51;;;;;;;;;;;26.50;58.10;;;;;;5073794;28;20028;-90
2022/05/22 08:12:17;;;;;;;;;;;26.50;57.40;;;;;;5072618;28;19976;-90
2022/05/22 08:14:44;;;;;;;;;;;26.50;57.50;;;;;;5073519;28;20336;-90
2022/05/22 08:17:10;;;;;;;;;;;26.50;57.20;;;;;;5073759;28;19956;-90
2022/05/22 08:19:36;;;;;;;;;;;26.50;57.70;;;;;;5073352;28;19937;-90
2022/05/22 08:22:02;;;;;;;;;;;26.60;58.20;;;;;;5072730;28;19958;-90
2022/05/22 08:24:27;;;;;;;;;;;26.60;58.30;;;;;;5073294;28;19982;-91
2022/05/22 08:26:53;;;;;;;;;;;26.60;59.30;;;;;;5073327;28;19944;-90
2022/05/22 08:29:18;;;;;;;;;;;26.60;61.10;;;;;;5073285;28;19938;-90
2022/05/22 08:31:44;;;;;;;;;;;26.60;60.60;;;;;;5072883;28;19947;-90
2022/05/22 08:34:10;;;;;;;;;;;26.60;58.70;;;;;;5073200;28;19943;-90
2022/05/22 08:36:35;;;;;;;;;;;26.40;60.30;;;;;;5073293;28;19995;-90
2022/05/22 08:39:01;;;;;;;;;;;26.40;61.80;;;;;;5073241;28;20425;-90
2022/05/22 08:41:32;;;;;;;;;;;26.40;60.40;;;;;;5068645;28;20119;-90
2022/05/22 08:43:58;;;;;;;;;;;26.40;58.00;;;;;;5053108;28;19961;-90
2022/05/22 08:46:42;;;;;;;;;;;26.50;58.30;;;;;;5053069;28;19938;-90
2022/05/22 08:49:20;;;;;;;;;;;26.50;60.10;;;;;;5052062;28;20297;-90
2022/05/22 08:51:48;;;;;;;;;;;26.60;59.50;;;;;;5059155;28;19960;-90
2022/05/22 08:54:28;;;;;;;;;;;26.70;58.00;;;;;;5073041;28;19991;-90
2022/05/22 08:59:42;;;;;;;;;;;26.80;58.50;;;;;;5077455;28;20003;-90
2022/05/22 09:02:32;;;;;;;;;;;26.80;58.30;;;;;;5076789;28;19971;-90
2022/05/22 09:05:06;;;;;;;;;;;26.90;58.40;;;;;;5077076;28;20008;-90
2022/05/22 09:07:50;;;;;;;;;;;27.00;57.90;;;;;;5077005;28;19941;-90
2022/05/22 09:10:32;;;;;;;;;;;27.00;57.60;;;;;;5076962;28;20428;-90
2022/05/22 09:13:08;;;;;;;;;;;27.10;54.60;;;;;;5076349;28;19988;-90
2022/05/22 09:15:47;;;;;;;;;;;27.20;57.00;;;;;;5076764;28;19938;-90
2022/05/22 09:18:30;;;;;;;;;;;27.20;57.50;;;;;;5076771;28;19936;-90
2022/05/22 09:21:00;;;;;;;;;;;27.20;56.20;;;;;;5077018;28;19945;-90
2022/05/22 09:23:26;;;;;;;;;;;27.30;56.20;;;;;;5056695;28;19974;-90
2022/05/22 09:25:57;;;;;;;;;;;27.50;55.90;;;;;;5056633;28;20424;-90
2022/05/22 09:28:30;;;;;;;;;;;27.50;54.60;;;;;;5058088;28;19942;-90
2022/05/22 09:30:59;;;;;;;;;;;27.70;55.00;;;;;;5076555;28;19944;-90
2022/05/22 09:33:24;;;;;;;;;;;27.70;54.50;;;;;;5076363;28;19938;-90
2022/05/22 09:35:54;;;;;;;;;;;27.80;55.00;;;;;;5076450;28;20033;-90
2022/05/22 09:38:28;;;;;;;;;;;27.80;53.00;;;;;;5074768;28;19952;-90
2022/05/22 09:41:20;;;;;;;;;;;27.90;51.20;;;;;;5076067;28;20358;-90
2022/05/22 09:43:46;;;;;;;;;;;28.00;55.10;;;;;;5052517;28;19953;-90
2022/05/22 09:46:30;;;;;;;;;;;28.10;54.10;;;;;;5076198;28;19942;-90
2022/05/22 09:49:01;;;;;;;;;;;28.10;54.50;;;;;;5070227;28;19954;-90
2022/05/22 09:51:30;;;;;;;;;;;28.20;52.10;;;;;;5056103;28;19986;-90
2022/05/22 09:54:15;;;;;;;;;;;28.00;50.30;;;;;;5056058;28;20414;-90
2022/05/22 09:57:00;;;;;;;;;;;28.10;49.20;;;;;;5056049;28;20054;-90
2022/05/22 09:59:45;;;;;;;;;;;28.30;51.70;;;;;;5056178;28;19950;-90
2022/05/22 10:02:18;;;;;;;;;;;28.40;50.00;;;;;;5055895;28;19969;-90
2022/05/22 10:04:49;;;;;;;;;;;28.30;49.10;;;;;;5055893;28;19949;-90
2022/05/22 10:07:24;;;;;;;;;;;28.40;52.10;;;;;;5055808;28;19937;-91
2022/05/22 10:10:04;;;;;;;;;;;28.60;50.40;;;;;;5055040;28;20064;-90
2022/05/22 10:12:30;;;;;;;;;;;28.70;50.10;;;;;;5055741;28;20393;-90
2022/05/22 10:14:56;;;;;;;;;;;28.70;49.00;;;;;;5055682;28;19950;-91
2022/05/22 10:17:23;;;;;;;;;;;28.90;51.20;;;;;;5055682;28;19942;-90
2022/05/22 10:20:07;;;;;;;;;;;29.00;48.60;;;;;;5065093;28;19946;-90
2022/05/22 10:22:32;;;;;;;;;;;29.00;50.70;;;;;;5075416;28;19964;-90
2022/05/22 10:25:01;;;;;;;;;;;29.20;48.80;;;;;;5075584;28;19950;-90
2022/05/22 10:27:26;;;;;;;;;;;29.10;48.50;;;;;;5075861;28;19969;-90
2022/05/22 10:29:52;;;;;;;;;;;28.80;50.30;;;;;;5074838;28;20391;-90
2022/05/22 10:32:23;;;;;;;;;;;28.70;49.80;;;;;;5075384;28;20432;-90
2022/05/22 10:34:52;;;;;;;;;;;28.80;50.50;;;;;;5075297;28;19947;-91
2022/05/22 10:37:24;;;;;;;;;;;28.90;52.40;;;;;;5075352;28;19976;-90
2022/05/22 10:39:50;;;;;;;;;;;29.10;49.60;;;;;;5075065;28;19956;-90
2022/05/22 10:45:16;;;;;;;;;;;29.20;47.70;;;;;;5075514;28;19992;-91
2022/05/22 10:47:41;;;;;;;;;;;29.20;47.80;;;;;;5075145;28;19943;-90
2022/05/22 10:50:33;;;;;;;;;;;29.10;49.20;;;;;;5074857;28;20026;-90
2022/05/22 10:52:59;;;;;;;;;;;29.00;47.20;;;;;;5071939;28;19995;-90
2022/05/22 10:55:25;;;;;;;;;;;29.00;50.90;;;;;;5075273;28;19945;-90
2022/05/22 10:57:58;;;;;;;;;;;29.20;50.50;;;;;;5074919;28;19947;-90
2022/05/22 11:00:24;;;;;;;;;;;29.30;51.60;;;;;;5072850;28;20001;-90
2022/05/22 11:02:50;;;;;;;;;;;29.70;49.70;;;;;;5074792;28;19959;-90
2022/05/22 11:05:16;;;;;;;;;;;30.00;49.20;;;;;;5074761;28;19942;-91
2022/05/22 11:07:42;;;;;;;;;;;30.30;45.30;;;;;;5074808;28;20229;-90
2022/05/22 11:10:17;;;;;;;;;;;30.60;44.70;;;;;;5061212;28;19945;-90
2022/05/22 11:12:43;;;;;;;;;;;30.60;46.00;;;;;;5054674;28;19947;-91
2022/05/22 11:15:14;;;;;;;;;;;30.70;43.90;;;;;;5054576;28;19942;-90
2022/05/22 11:17:40;;;;;;;;;;;30.90;45.70;;;;;;5054517;28;20000;-90
2022/05/22 11:20:14;;;;;;;;;;;31.00;44.40;;;;;;5054520;28;19977;-90
2022/05/22 11:23:00;;;;;;;;;;;31.00;44.80;;;;;;5053379;28;20054;-90
2022/05/22 11:25:27;;;;;;;;;;;30.60;43.80;;;;;;5054403;28;19949;-90
2022/05/22 11:28:01;;;;;;;;;;;30.50;45.50;;;;;;5072567;28;19959;-90
2022/05/22 11:30:39;;;;;;;;;;;30.60;46.00;;;;;;5074300;28;20478;-91
2022/05/22 11:33:13;;;;;;;;;;;30.70;46.70;;;;;;5074076;28;19942;-90
2022/05/22 11:35:44;;;;;;;;;;;31.00;46.00;;;;;;5073958;28;19939;-90
2022/05/22 11:38:15;;;;;;;;;;;30.70;45.00;;;;;;5074142;28;20025;-90
2022/05/22 11:41:00;;;;;;;;;;;30.60;47.30;;;;;;5073886;28;20011;-90
2022/05/22 11:43:38;;;;;;;;;;;30.80;45.30;;;;;;5073935;28;19982;-91
2022/05/22 11:46:06;;;;;;;;;;;31.10;44.50;;;;;;5072783;28;19961;-91
2022/05/22 11:48:37;;;;;;;;;;;31.20;42.70;;;;;;5053927;28;19937;-90
2022/05/22 11:51:12;;;;;;;;;;;31.60;44.40;;;;;;5053939;28;20073;-90
2022/05/22 11:53:49;;;;;;;;;;;31.70;42.00;;;;;;5053881;28;20279;-90
2022/05/22 11:56:41;;;;;;;;;;;31.60;43.10;;;;;;5054483;28;19947;-90
2022/05/22 11:59:06;;;;;;;;;;;31.50;42.10;;;;;;5054054;28;19946;-90
2022/05/22 12:01:38;;;;;;;;;;;30.90;41.40;;;;;;5053629;28;19964;-90
2022/05/22 12:04:09;;;;;;;;;;;30.30;43.30;;;;;;5053658;28;19988;-90
2022/05/22 12:07:30;;;;;;;;;;;30.50;43.00;;;;;;5111017;27;19964;-90
2022/05/22 12:09:59;;;;;;;;;;;30.90;41.60;;;;;;5111098;28;19939;-91
2022/05/22 12:12:44;;;;;;;;;;;31.60;42.60;;;;;;5110916;28;19939;-90
2022/05/22 12:15:29;;;;;;;;;;;32.20;40.00;;;;;;5106858;27;19950;-90
2022/05/22 12:18:03;;;;;;;;;;;32.70;37.80;;;;;;5110390;28;19941;-91
2022/05/22 12:20:35;;;;;;;;;;;33.10;39.80;;;;;;5110848;28;19941;-90
2022/05/22 12:23:16;;;;;;;;;;;32.90;39.80;;;;;;5110759;28;19960;-90
2022/05/22 12:25:51;;;;;;;;;;;32.70;39.50;;;;;;5110699;28;19979;-91
2022/05/22 12:28:25;;;;;;;;;;;32.70;39.20;;;;;;5070194;28;19942;-90
2022/05/22 12:30:52;;;;;;;;;;;32.90;40.30;;;;;;5070103;28;19940;-91
2022/05/22 12:33:18;;;;;;;;;;;33.30;37.50;;;;;;5069975;28;20417;-90
2022/05/22 12:35:44;;;;;;;;;;;33.60;37.20;;;;;;5070012;28;19961;-90
2022/05/22 12:38:12;;;;;;;;;;;34.20;36.40;;;;;;5089983;28;20038;-91
2022/05/22 12:40:38;;;;;;;;;;;34.80;35.10;;;;;;5090164;28;20412;-91
2022/05/22 12:43:05;;;;;;;;;;;34.70;38.10;;;;;;5089871;28;20057;-91
2022/05/22 12:45:31;;;;;;;;;;;35.00;36.50;;;;;;5090224;28;19990;-91
2022/05/22 12:48:16;;;;;;;;;;;34.80;37.10;;;;;;5107030;28;20000;-91
2022/05/22 12:50:46;;;;;;;;;;;34.70;35.80;;;;;;5110283;28;19944;-91
2022/05/22 12:53:24;;;;;;;;;;;34.70;37.90;;;;;;5110214;28;19935;-91
2022/05/22 12:55:50;;;;;;;;;;;34.90;36.60;;;;;;5110232;28;19957;-91
2022/05/22 12:58:31;;;;;;;;;;;33.90;36.70;;;;;;5109721;28;19944;-91
2022/05/22 13:00:56;;;;;;;;;;;33.00;40.40;;;;;;5108875;28;19957;-90
2022/05/22 13:03:26;;;;;;;;;;;32.70;42.10;;;;;;5110138;28;19947;-90
2022/05/22 13:06:05;;;;;;;;;;;32.20;41.40;;;;;;5109941;28;19980;-90
2022/05/22 13:08:37;;;;;;;;;;;31.80;41.20;;;;;;5069287;28;20079;-91
2022/05/22 13:11:07;;;;;;;;;;;31.20;42.10;;;;;;5069250;28;19948;-90
2022/05/22 13:13:36;;;;;;;;;;;30.90;43.40;;;;;;5069207;28;19952;-90
2022/05/22 13:16:06;;;;;;;;;;;30.80;43.60;;;;;;5069993;28;20007;-90
2022/05/22 13:18:32;;;;;;;;;;;30.60;45.10;;;;;;5083075;28;20036;-91
2022/05/22 13:20:59;;;;;;;;;;;30.20;45.00;;;;;;5075871;28;19937;-90
2022/05/22 13:23:31;;;;;;;;;;;30.10;45.50;;;;;;5075830;28;19960;-90
2022/05/22 13:25:57;;;;;;;;;;;29.90;45.90;;;;;;5075717;28;20416;-90
2022/05/22 13:28:34;;;;;;;;;;;29.70;46.00;;;;;;5076052;28;19946;-90
2022/05/22 13:31:03;;;;;;;;;;;29.70;45.70;;;;;;5075725;28;19951;-90
2022/05/22 13:33:29;;;;;;;;;;;29.40;46.20;;;;;;5075633;28;19944;-90
2022/05/22 13:35:57;;;;;;;;;;;29.20;47.30;;;;;;5075572;28;19993;-90
2022/05/22 13:38:22;;;;;;;;;;;29.10;47.30;;;;;;5075911;28;20177;-90
2022/05/22 13:40:48;;;;;;;;;;;28.90;48.90;;;;;;5075574;28;19971;-90
2022/05/22 13:43:13;;;;;;;;;;;28.80;49.20;;;;;;5075486;28;19950;-90
2022/05/22 13:45:48;;;;;;;;;;;28.70;52.00;;;;;;5075321;28;20017;-90
2022/05/22 13:48:29;;;;;;;;;;;28.60;57.50;;;;;;5093105;28;19951;-89
2022/05/22 13:53:38;;;;;;;;;;;27.50;64.20;;;;;;5095516;28;19997;-90
2022/05/22 13:56:04;;;;;;;;;;;27.10;64.30;;;;;;5095065;28;19935;-90
2022/05/22 13:58:38;;;;;;;;;;;26.80;66.80;;;;;;5095179;28;19942;-90
2022/05/22 14:01:14;;;;;;;;;;;26.60;67.50;;;;;;5095361;28;19939;-90
2022/05/22 14:03:50;;;;;;;;;;;26.30;70.60;;;;;;5095283;28;19937;-90
2022/05/22 14:06:22;;;;;;;;;;;26.30;72.60;;;;;;5094390;28;20384;-90
2022/05/22 14:08:53;;;;;;;;;;;26.40;71.80;;;;;;5095241;28;20446;-90
2022/05/22 14:11:19;;;;;;;;;;;26.60;71.30;;;;;;5095207;28;19966;-90
2022/05/22 14:13:52;;;;;;;;;;;26.70;66.90;;;;;;5095163;28;20387;-90
2022/05/22 14:16:38;;;;;;;;;;;27.10;62.80;;;;;;5093458;28;19943;-90
2022/05/22 14:19:05;;;;;;;;;;;27.50;63.10;;;;;;5073617;28;20000;-90
2022/05/22 14:21:32;;;;;;;;;;;27.90;59.60;;;;;;5074725;28;19940;-91
2022/05/22 14:26:43;;;;;;;;;;;28.90;53.50;;;;;;5077345;28;20011;-90
2022/05/22 14:29:10;;;;;;;;;;;29.60;54.10;;;;;;5073627;28;20368;-90
2022/05/22 14:31:43;;;;;;;;;;;30.20;51.90;;;;;;5074520;28;19940;-90
2022/05/22 14:34:08;;;;;;;;;;;30.90;48.90;;;;;;5077941;28;20399;-91
2022/05/22 14:36:34;;;;;;;;;;;31.50;44.80;;;;;;5094689;28;20017;-91
2022/05/22 14:39:00;;;;;;;;;;;32.10;44.70;;;;;;5094700;28;20398;-90
2022/05/22 14:41:26;;;;;;;;;;;32.40;41.00;;;;;;5094562;28;19995;-90
2022/05/22 14:44:00;;;;;;;;;;;32.30;42.30;;;;;;5094205;28;19939;-90
2022/05/22 14:46:38;;;;;;;;;;;32.30;41.00;;;;;;5094400;28;19968;-90
2022/05/22 14:49:23;;;;;;;;;;;32.20;40.90;;;;;;5094498;28;19998;-90